createdAt,value
2023-03-31T00:00:03.792Z,500.00
2023-03-31T00:01:03.767Z,500.00
2023-03-31T00:02:03.740Z,494.00
2023-03-31T00:03:03.743Z,496.00
2023-03-31T00:04:04.004Z,500.00
2023-03-31T00:05:03.796Z,500.00
2023-03-31T00:06:04.064Z,500.00
2023-03-31T00:07:03.633Z,500.00
2023-03-31T00:08:03.614Z,484.00
2023-03-31T00:09:03.609Z,466.00
2023-03-31T00:10:16.723Z,471.00
2023-03-31T00:11:03.563Z,471.00
2023-03-31T00:12:03.854Z,476.00
2023-03-31T00:13:03.591Z,512.00
2023-03-31T00:14:03.543Z,561.00
2023-03-31T00:15:03.547Z,635.00
2023-03-31T00:16:03.750Z,669.00
2023-03-31T00:17:03.568Z,773.00
2023-03-31T00:18:03.575Z,862.00
2023-03-31T00:19:03.547Z,898.00
2023-03-31T00:20:03.540Z,945.00
2023-03-31T00:21:03.532Z,960.00
2023-03-31T00:22:03.537Z,909.00
2023-03-31T00:23:03.521Z,869.00
2023-03-31T00:24:03.518Z,871.00
2023-03-31T00:25:03.538Z,870.00
2023-03-31T00:26:03.866Z,883.00
2023-03-31T00:27:03.526Z,823.00
2023-03-31T00:28:03.544Z,784.00
2023-03-31T00:29:03.542Z,798.00
2023-03-31T00:30:03.504Z,830.00
2023-03-31T00:31:03.557Z,872.00
2023-03-31T00:32:03.630Z,878.00
2023-03-31T00:33:03.555Z,910.00
2023-03-31T00:34:03.489Z,934.00
2023-03-31T00:35:03.477Z,938.00
2023-03-31T00:36:03.887Z,967.00
2023-03-31T00:37:03.462Z,995.00
2023-03-31T00:38:03.467Z,990.00
2023-03-31T00:39:03.512Z,1007.00
2023-03-31T00:40:03.525Z,1035.00
2023-03-31T00:41:03.543Z,1040.00
2023-03-31T00:42:03.564Z,1032.00
2023-03-31T00:43:03.577Z,1038.00
2023-03-31T00:44:03.596Z,1033.00
2023-03-31T00:45:03.667Z,981.00
2023-03-31T00:46:04.053Z,944.00
2023-03-31T00:47:03.658Z,874.00
2023-03-31T00:48:03.739Z,855.00
2023-03-31T00:49:03.731Z,779.00
2023-03-31T00:50:03.773Z,762.00
2023-03-31T00:51:03.805Z,766.00
2023-03-31T00:52:03.854Z,779.00
2023-03-31T00:53:03.859Z,794.00
2023-03-31T00:54:03.889Z,789.00
2023-03-31T00:55:03.911Z,845.00
2023-03-31T00:56:04.244Z,941.00
2023-03-31T00:57:05.421Z,937.00
2023-03-31T00:58:04.026Z,932.00
2023-03-31T00:59:04.072Z,898.00
2023-03-31T01:00:04.149Z,899.00
2023-03-31T01:01:04.351Z,904.00
2023-03-31T01:02:04.324Z,912.00
2023-03-31T01:03:04.424Z,897.00
2023-03-31T01:04:04.554Z,884.00
2023-03-31T01:05:04.475Z,889.00
2023-03-31T01:06:04.934Z,907.00
2023-03-31T01:07:04.572Z,920.00
2023-03-31T01:08:04.627Z,939.00
2023-03-31T01:09:04.698Z,992.00
2023-03-31T01:10:04.756Z,1045.00
2023-03-31T01:11:04.830Z,1092.00
2023-03-31T01:12:04.932Z,1147.00
2023-03-31T01:13:04.976Z,1245.00
2023-03-31T01:14:05.047Z,1349.00
2023-03-31T01:15:05.132Z,1411.00
2023-03-31T01:16:05.335Z,1424.00
2023-03-31T01:17:05.541Z,1429.00
2023-03-31T01:18:05.388Z,1401.00
2023-03-31T01:19:05.359Z,1372.00
2023-03-31T01:20:05.450Z,1354.00
2023-03-31T01:21:05.444Z,1353.00
2023-03-31T01:22:05.500Z,1311.00
2023-03-31T01:23:05.587Z,1248.00
2023-03-31T01:24:05.547Z,1213.00
2023-03-31T01:25:05.580Z,1203.00
2023-03-31T01:26:05.788Z,1275.00
2023-03-31T01:27:05.649Z,1294.00
2023-03-31T01:28:05.688Z,1281.00
2023-03-31T01:29:05.732Z,1270.00
2023-03-31T01:30:05.765Z,1253.00
2023-03-31T01:31:05.897Z,1231.00
2023-03-31T01:32:05.821Z,1226.00
2023-03-31T01:33:05.931Z,1217.00
2023-03-31T01:34:05.909Z,1197.00
2023-03-31T01:35:05.967Z,1198.00
2023-03-31T01:36:06.222Z,1211.00
2023-03-31T01:37:06.020Z,1211.00
2023-03-31T01:38:06.118Z,1238.00
2023-03-31T01:39:06.074Z,1224.00
2023-03-31T01:40:06.128Z,1229.00
2023-03-31T01:41:06.161Z,1218.00
2023-03-31T01:42:06.180Z,1203.00
2023-03-31T01:43:06.213Z,1202.00
2023-03-31T01:44:06.267Z,1239.00
2023-03-31T01:45:06.314Z,1245.00
2023-03-31T01:46:06.569Z,1271.00
2023-03-31T01:47:06.376Z,1270.00
2023-03-31T01:48:06.446Z,1283.00
2023-03-31T01:49:06.459Z,1297.00
2023-03-31T01:50:06.495Z,1261.00
2023-03-31T01:51:06.603Z,1201.00
2023-03-31T01:52:06.674Z,1195.00
2023-03-31T01:53:06.706Z,1188.00
2023-03-31T01:54:06.792Z,1168.00
2023-03-31T01:55:06.871Z,1162.00
2023-03-31T01:56:07.116Z,1159.00
2023-03-31T01:57:07.017Z,1144.00
2023-03-31T01:58:07.042Z,1122.00
2023-03-31T01:59:07.038Z,1106.00
2023-03-31T02:00:07.056Z,1101.00
2023-03-31T02:01:07.061Z,1091.00
2023-03-31T02:02:07.112Z,1100.00
2023-03-31T02:03:07.190Z,1079.00
2023-03-31T02:04:07.194Z,1030.00
2023-03-31T02:05:07.276Z,1018.00
2023-03-31T02:06:07.745Z,1024.00
2023-03-31T02:07:07.355Z,1055.00
2023-03-31T02:08:07.390Z,1090.00
2023-03-31T02:09:07.435Z,1133.00
2023-03-31T02:10:07.508Z,1150.00
2023-03-31T02:11:07.593Z,1164.00
2023-03-31T02:12:07.622Z,1174.00
2023-03-31T02:13:07.700Z,1186.00
2023-03-31T02:14:07.755Z,1184.00
2023-03-31T02:15:07.792Z,1192.00
2023-03-31T02:16:08.257Z,1194.00
2023-03-31T02:17:07.890Z,1204.00
2023-03-31T02:18:07.942Z,1199.00
2023-03-31T02:19:07.997Z,1198.00
2023-03-31T02:20:08.038Z,1206.00
2023-03-31T02:21:08.122Z,1192.00
2023-03-31T02:22:08.139Z,1191.00
2023-03-31T02:23:08.163Z,1175.00
2023-03-31T02:24:08.228Z,1122.00
2023-03-31T02:25:08.274Z,1103.00
2023-03-31T02:26:08.540Z,999.00
2023-03-31T02:27:08.350Z,913.00
2023-03-31T02:28:08.399Z,722.00
2023-03-31T02:29:08.451Z,577.00
2023-03-31T02:30:08.499Z,539.00
2023-03-31T02:31:08.589Z,530.00
2023-03-31T02:32:08.599Z,530.00
2023-03-31T02:33:08.680Z,533.00
2023-03-31T02:34:08.737Z,542.00
2023-03-31T02:35:08.786Z,532.00
2023-03-31T02:36:09.235Z,497.00
2023-03-31T02:37:08.920Z,501.00
2023-03-31T02:38:08.957Z,501.00
2023-03-31T02:39:09.037Z,510.00
2023-03-31T02:40:09.098Z,515.00
2023-03-31T02:41:09.171Z,510.00
2023-03-31T02:42:09.198Z,500.00
2023-03-31T02:43:09.262Z,501.00
2023-03-31T02:44:09.295Z,500.00
2023-03-31T02:45:09.351Z,505.00
2023-03-31T02:46:09.689Z,519.00
2023-03-31T02:47:09.452Z,537.00
2023-03-31T02:48:09.544Z,556.00
2023-03-31T02:49:09.583Z,587.00
2023-03-31T02:50:09.667Z,620.00
2023-03-31T02:51:09.667Z,642.00
2023-03-31T02:52:09.722Z,631.00
2023-03-31T02:53:09.801Z,625.00
2023-03-31T02:54:09.844Z,602.00
2023-03-31T02:55:09.896Z,588.00
2023-03-31T02:56:09.934Z,586.00
2023-03-31T02:57:09.949Z,594.00
2023-03-31T02:58:09.937Z,606.00
2023-03-31T02:59:09.954Z,608.00
2023-03-31T03:00:09.984Z,610.00
2023-03-31T03:01:10.041Z,603.00
2023-03-31T03:02:10.074Z,591.00
2023-03-31T03:03:10.177Z,603.00
2023-03-31T03:04:10.103Z,606.00
2023-03-31T03:05:10.109Z,617.00
2023-03-31T03:06:10.369Z,610.00
2023-03-31T03:07:10.162Z,614.00
2023-03-31T03:08:10.201Z,645.00
2023-03-31T03:09:10.269Z,651.00
2023-03-31T03:10:10.267Z,684.00
2023-03-31T03:11:10.372Z,707.00
2023-03-31T03:12:10.348Z,746.00
2023-03-31T03:13:10.447Z,765.00
2023-03-31T03:14:10.502Z,788.00
2023-03-31T03:15:10.639Z,823.00
2023-03-31T03:16:10.618Z,766.00
2023-03-31T03:17:10.602Z,760.00
2023-03-31T03:18:10.652Z,775.00
2023-03-31T03:19:10.669Z,786.00
2023-03-31T03:20:10.819Z,775.00
2023-03-31T03:21:10.771Z,766.00
2023-03-31T03:22:10.810Z,729.00
2023-03-31T03:23:10.866Z,722.00
2023-03-31T03:24:10.912Z,746.00
2023-03-31T03:25:10.956Z,746.00
2023-03-31T03:26:10.930Z,761.00
2023-03-31T03:27:10.988Z,777.00
2023-03-31T03:28:11.006Z,833.00
2023-03-31T03:29:11.079Z,846.00
2023-03-31T03:30:11.155Z,811.00
2023-03-31T03:31:11.203Z,796.00
2023-03-31T03:32:11.309Z,765.00
2023-03-31T03:33:11.326Z,778.00
2023-03-31T03:34:11.353Z,775.00
2023-03-31T03:35:11.426Z,797.00
2023-03-31T03:36:11.506Z,798.00
2023-03-31T03:37:11.524Z,822.00
2023-03-31T03:38:11.583Z,846.00
2023-03-31T03:39:11.607Z,845.00
2023-03-31T03:40:11.700Z,862.00
2023-03-31T03:41:11.736Z,868.00
2023-03-31T03:42:11.765Z,867.00
2023-03-31T03:43:11.838Z,865.00
2023-03-31T03:44:11.842Z,848.00
2023-03-31T03:45:11.880Z,870.00
2023-03-31T03:46:11.932Z,879.00
2023-03-31T03:47:11.975Z,856.00
2023-03-31T03:48:12.038Z,848.00
2023-03-31T03:49:12.094Z,861.00
2023-03-31T03:50:14.000Z,892.00
2023-03-31T03:51:12.143Z,892.00
2023-03-31T03:52:12.124Z,896.00
2023-03-31T03:53:12.131Z,910.00
2023-03-31T03:54:12.132Z,949.00
2023-03-31T03:55:12.163Z,1010.00
2023-03-31T03:56:12.103Z,1022.00
2023-03-31T03:57:12.093Z,1194.00
2023-03-31T03:58:12.094Z,1387.00
2023-03-31T03:59:12.046Z,1486.00
2023-03-31T04:00:12.051Z,1554.00
2023-03-31T04:01:12.030Z,1598.00
2023-03-31T04:02:12.050Z,1570.00
2023-03-31T04:03:12.106Z,1584.00
2023-03-31T04:04:12.023Z,1588.00
2023-03-31T04:05:12.030Z,1615.00
2023-03-31T04:06:12.006Z,1644.00
2023-03-31T04:07:12.011Z,1704.00
2023-03-31T04:08:11.995Z,1731.00
2023-03-31T04:09:12.010Z,1757.00
2023-03-31T04:10:12.004Z,1804.00
2023-03-31T04:11:11.996Z,1940.00
2023-03-31T04:12:11.985Z,2087.00
2023-03-31T04:13:12.014Z,2084.00
2023-03-31T04:14:11.975Z,2090.00
2023-03-31T04:15:12.003Z,2126.00
2023-03-31T04:16:12.113Z,2140.00
2023-03-31T04:17:12.069Z,2162.00
2023-03-31T04:18:14.598Z,2152.00
2023-03-31T04:19:12.190Z,2154.00
2023-03-31T04:20:12.086Z,2122.00
2023-03-31T04:21:12.105Z,2088.00
2023-03-31T04:22:12.103Z,2148.00
2023-03-31T04:23:12.100Z,2172.00
2023-03-31T04:24:12.118Z,2172.00
2023-03-31T04:25:12.105Z,2158.00
2023-03-31T04:26:12.105Z,2142.00
2023-03-31T04:27:12.110Z,2151.00
2023-03-31T04:28:12.120Z,2094.00
2023-03-31T04:29:12.159Z,2038.00
2023-03-31T04:30:12.146Z,2014.00
2023-03-31T04:31:12.180Z,1992.00
2023-03-31T04:32:12.249Z,1965.00
2023-03-31T04:33:12.220Z,1985.00
2023-03-31T04:34:12.265Z,1943.00
2023-03-31T04:35:12.261Z,1781.00
2023-03-31T04:36:12.331Z,1711.00
2023-03-31T04:37:12.306Z,1693.00
2023-03-31T04:38:12.309Z,1639.00
2023-03-31T04:39:12.328Z,1630.00
2023-03-31T04:40:12.925Z,1633.00
2023-03-31T04:41:12.339Z,1651.00
2023-03-31T04:42:12.353Z,1707.00
2023-03-31T04:43:12.374Z,1730.00
2023-03-31T04:44:12.371Z,1736.00
2023-03-31T04:45:12.422Z,1713.00
2023-03-31T04:46:12.434Z,1656.00
2023-03-31T04:47:12.411Z,1596.00
2023-03-31T04:48:12.403Z,1566.00
2023-03-31T04:49:12.405Z,1519.00
2023-03-31T04:50:16.193Z,1464.00
2023-03-31T04:51:12.636Z,1404.00
2023-03-31T04:52:12.755Z,1301.00
2023-03-31T04:53:12.753Z,1228.00
2023-03-31T04:54:12.822Z,1350.00
2023-03-31T04:55:12.881Z,1168.00
2023-03-31T04:56:12.903Z,1127.00
2023-03-31T04:57:12.987Z,1061.00
2023-03-31T04:58:12.955Z,1005.00
2023-03-31T04:59:12.975Z,1012.00
2023-03-31T05:00:13.048Z,1000.00
2023-03-31T05:01:13.105Z,1019.00
2023-03-31T05:02:13.116Z,1042.00
2023-03-31T05:03:13.171Z,1100.00
2023-03-31T05:04:13.083Z,1082.00
2023-03-31T05:05:13.112Z,1079.00
2023-03-31T05:06:13.108Z,1071.00
2023-03-31T05:07:13.167Z,1124.00
2023-03-31T05:08:13.130Z,1181.00
2023-03-31T05:09:13.152Z,1246.00
2023-03-31T05:10:13.503Z,1262.00
2023-03-31T05:11:13.186Z,1258.00
2023-03-31T05:12:13.204Z,1266.00
2023-03-31T05:13:13.229Z,1256.00
2023-03-31T05:14:13.252Z,1212.00
2023-03-31T05:15:13.306Z,1127.00
2023-03-31T05:16:13.377Z,1066.00
2023-03-31T05:17:13.414Z,962.00
2023-03-31T05:18:13.517Z,868.00
2023-03-31T05:19:13.470Z,759.00
2023-03-31T05:20:13.597Z,810.00
2023-03-31T05:21:13.491Z,797.00
2023-03-31T05:22:13.508Z,655.00
2023-03-31T05:23:13.988Z,544.00
2023-03-31T05:24:13.539Z,525.00
2023-03-31T05:25:13.574Z,515.00
2023-03-31T05:26:13.692Z,500.00
2023-03-31T05:27:13.636Z,531.00
2023-03-31T05:28:13.636Z,529.00
2023-03-31T05:29:13.637Z,552.00
2023-03-31T05:30:13.640Z,556.00
2023-03-31T05:31:13.699Z,515.00
2023-03-31T05:32:13.687Z,522.00
2023-03-31T05:33:14.022Z,501.00
2023-03-31T05:34:13.699Z,506.00
2023-03-31T05:35:13.719Z,488.00
2023-03-31T05:36:14.034Z,502.00
2023-03-31T05:37:13.759Z,500.00
2023-03-31T05:38:13.836Z,514.00
2023-03-31T05:39:13.870Z,499.00
2023-03-31T05:40:13.915Z,534.00
2023-03-31T05:41:14.103Z,592.00
2023-03-31T05:42:14.006Z,742.00
2023-03-31T05:43:13.003Z,683.00
2023-03-31T05:44:14.555Z,638.00
2023-03-31T05:45:14.092Z,576.00
2023-03-31T05:46:14.157Z,609.00
2023-03-31T05:47:14.202Z,689.00
2023-03-31T05:48:14.255Z,758.00
2023-03-31T05:49:14.545Z,850.00
2023-03-31T05:50:14.927Z,862.00
2023-03-31T05:51:14.430Z,919.00
2023-03-31T05:52:14.477Z,881.00
2023-03-31T05:53:15.012Z,919.00
2023-03-31T05:54:15.026Z,913.00
2023-03-31T05:55:14.626Z,910.00
2023-03-31T05:56:14.624Z,1005.00
2023-03-31T05:57:14.704Z,1108.00
2023-03-31T05:58:15.006Z,1350.00
2023-03-31T05:59:15.259Z,1417.00
2023-03-31T06:00:14.860Z,1484.00
2023-03-31T06:01:18.134Z,1530.00
2023-03-31T06:02:14.955Z,1531.00
2023-03-31T06:03:15.083Z,1479.00
2023-03-31T06:04:15.323Z,1520.00
2023-03-31T06:05:14.854Z,1570.00
2023-03-31T06:06:15.324Z,1618.00
2023-03-31T06:07:14.827Z,1579.00
2023-03-31T06:08:15.000Z,1600.00
2023-03-31T06:09:14.833Z,1658.00
2023-03-31T06:10:14.825Z,1690.00
2023-03-31T06:11:15.806Z,1664.00
2023-03-31T06:12:14.829Z,1429.00
2023-03-31T06:13:14.997Z,1348.00
2023-03-31T06:14:14.803Z,1284.00
2023-03-31T06:15:15.488Z,1293.00
2023-03-31T06:16:14.808Z,1304.00
2023-03-31T06:17:14.798Z,1377.00
2023-03-31T06:18:15.031Z,1409.00
2023-03-31T06:19:14.836Z,1446.00
2023-03-31T06:20:27.257Z,1496.00
2023-03-31T06:21:14.859Z,1497.00
2023-03-31T06:22:15.144Z,1207.00
2023-03-31T06:23:15.025Z,1069.00
2023-03-31T06:24:14.829Z,951.00
2023-03-31T06:25:14.836Z,915.00
2023-03-31T06:26:14.831Z,893.00
2023-03-31T06:27:15.820Z,854.00
2023-03-31T06:28:15.067Z,799.00
2023-03-31T06:29:15.003Z,779.00
2023-03-31T06:30:14.827Z,778.00
2023-03-31T06:31:14.867Z,847.00
2023-03-31T06:32:14.811Z,904.00
2023-03-31T06:33:15.040Z,922.00
2023-03-31T06:34:15.002Z,859.00
2023-03-31T06:35:14.853Z,868.00
2023-03-31T06:36:14.938Z,988.00
2023-03-31T06:37:14.914Z,1156.00
2023-03-31T06:38:15.042Z,1218.00
2023-03-31T06:39:14.924Z,1265.00
2023-03-31T06:40:15.003Z,1283.00
2023-03-31T06:41:15.024Z,1299.00
2023-03-31T06:42:15.010Z,1242.00
2023-03-31T06:43:15.097Z,1242.00
2023-03-31T06:44:15.024Z,1295.00
2023-03-31T06:45:15.005Z,1379.00
2023-03-31T06:46:15.044Z,1390.00
2023-03-31T06:47:15.076Z,1168.00
2023-03-31T06:48:15.538Z,1032.00
2023-03-31T06:49:15.101Z,1062.00
2023-03-31T06:50:15.037Z,1054.00
2023-03-31T06:51:15.030Z,941.00
2023-03-31T06:52:15.054Z,934.00
2023-03-31T06:53:15.561Z,889.00
2023-03-31T06:54:15.090Z,837.00
2023-03-31T06:55:15.112Z,868.00
2023-03-31T06:56:15.136Z,740.00
2023-03-31T06:57:15.231Z,719.00
2023-03-31T06:58:15.674Z,823.00
2023-03-31T06:59:15.550Z,841.00
2023-03-31T07:00:15.327Z,658.00
2023-03-31T07:01:15.421Z,613.00
2023-03-31T07:02:15.414Z,619.00
2023-03-31T07:03:15.458Z,635.00
2023-03-31T07:04:15.515Z,637.00
2023-03-31T07:05:15.412Z,625.00
2023-03-31T07:06:15.402Z,626.00
2023-03-31T07:07:15.438Z,629.00
2023-03-31T07:08:15.527Z,643.00
2023-03-31T07:09:15.491Z,815.00
2023-03-31T07:10:15.466Z,836.00
2023-03-31T07:11:15.473Z,919.00
2023-03-31T07:12:15.470Z,1044.00
2023-03-31T07:13:15.534Z,1126.00
2023-03-31T07:14:15.488Z,1202.00
2023-03-31T07:15:15.488Z,1249.00
2023-03-31T07:16:15.539Z,1197.00
2023-03-31T07:17:15.558Z,1214.00
2023-03-31T07:18:16.154Z,1281.00
2023-03-31T07:19:15.697Z,1323.00
2023-03-31T07:20:15.756Z,1372.00
2023-03-31T07:21:15.827Z,1389.00
2023-03-31T07:22:15.990Z,1368.00
2023-03-31T07:23:16.078Z,1356.00
2023-03-31T07:24:16.002Z,1311.00
2023-03-31T07:25:16.066Z,1314.00
2023-03-31T07:26:16.113Z,1296.00
2023-03-31T07:27:16.115Z,1294.00
2023-03-31T07:28:16.563Z,1284.00
2023-03-31T07:29:16.146Z,1283.00
2023-03-31T07:30:16.181Z,1216.00
2023-03-31T07:31:16.220Z,1248.00
2023-03-31T07:32:16.301Z,1299.00
2023-03-31T07:33:16.598Z,1398.00
2023-03-31T07:34:16.322Z,1384.00
2023-03-31T07:35:16.376Z,1401.00
2023-03-31T07:36:16.581Z,1325.00
2023-03-31T07:37:16.478Z,1361.00
2023-03-31T07:38:17.038Z,1390.00
2023-03-31T07:39:17.174Z,1390.00
2023-03-31T07:40:17.025Z,1360.00
2023-03-31T07:41:16.692Z,1453.00
2023-03-31T07:42:16.681Z,1474.00
2023-03-31T07:43:16.674Z,1448.00
2023-03-31T07:44:17.018Z,1408.00
2023-03-31T07:45:17.072Z,1467.00
2023-03-31T07:46:16.796Z,1459.00
2023-03-31T07:47:17.114Z,1373.00
2023-03-31T07:48:16.836Z,1347.00
2023-03-31T07:49:17.038Z,1369.00
2023-03-31T07:50:16.853Z,1361.00
2023-03-31T07:51:16.875Z,1411.00
2023-03-31T07:52:16.877Z,1473.00
2023-03-31T07:53:16.891Z,1470.00
2023-03-31T07:54:17.144Z,1502.00
2023-03-31T07:55:17.081Z,1307.00
2023-03-31T07:56:17.062Z,1323.00
2023-03-31T07:57:17.180Z,1252.00
2023-03-31T07:58:17.523Z,1143.00
2023-03-31T07:59:17.163Z,1061.00
2023-03-31T08:00:17.216Z,1011.00
2023-03-31T08:01:17.245Z,959.00
2023-03-31T08:02:17.300Z,864.00
2023-03-31T08:03:17.571Z,766.00
2023-03-31T08:04:17.622Z,718.00
2023-03-31T08:05:17.336Z,657.00
2023-03-31T08:06:17.440Z,614.00
2023-03-31T08:07:16.423Z,629.00
2023-03-31T08:08:17.522Z,617.00
2023-03-31T08:09:17.525Z,602.00
2023-03-31T08:10:17.528Z,619.00
2023-03-31T08:11:18.098Z,626.00
2023-03-31T08:12:18.047Z,648.00
2023-03-31T08:13:17.673Z,738.00
2023-03-31T08:14:27.153Z,697.00
2023-03-31T08:15:17.641Z,699.00
2023-03-31T08:16:17.684Z,704.00
2023-03-31T08:17:17.598Z,705.00
2023-03-31T08:18:17.580Z,765.00
2023-03-31T08:19:17.554Z,824.00
2023-03-31T08:20:17.548Z,858.00
2023-03-31T08:21:17.566Z,747.00
2023-03-31T08:22:17.465Z,697.00
2023-03-31T08:23:17.444Z,676.00
2023-03-31T08:24:17.425Z,735.00
2023-03-31T08:25:17.405Z,814.00
2023-03-31T08:26:18.075Z,716.00
2023-03-31T08:27:17.393Z,702.00
2023-03-31T08:28:17.346Z,760.00
2023-03-31T08:29:17.379Z,839.00
2023-03-31T08:30:17.649Z,884.00
2023-03-31T08:31:17.552Z,1025.00
2023-03-31T08:32:17.270Z,1242.00
2023-03-31T08:33:17.237Z,1147.00
2023-03-31T08:34:17.265Z,1077.00
2023-03-31T08:35:17.546Z,1096.00
2023-03-31T08:36:17.163Z,1179.00
2023-03-31T08:37:17.569Z,1134.00
2023-03-31T08:38:17.090Z,1032.00
2023-03-31T08:39:17.058Z,974.00
2023-03-31T08:40:17.046Z,974.00
2023-03-31T08:41:16.974Z,953.00
2023-03-31T08:42:17.071Z,661.00
2023-03-31T08:43:16.901Z,631.00
2023-03-31T08:44:16.876Z,684.00
2023-03-31T08:45:17.078Z,790.00
2023-03-31T08:46:16.896Z,718.00
2023-03-31T08:47:17.085Z,631.00
2023-03-31T08:48:18.207Z,661.00
2023-03-31T08:49:16.958Z,667.00
2023-03-31T08:50:16.965Z,674.00
2023-03-31T08:51:16.961Z,689.00
2023-03-31T08:52:17.040Z,836.00
2023-03-31T08:53:18.128Z,785.00
2023-03-31T08:54:16.959Z,785.00
2023-03-31T08:55:17.374Z,1621.00
2023-03-31T08:56:16.969Z,1392.00
2023-03-31T08:57:17.067Z,971.00
2023-03-31T08:58:18.369Z,916.00
2023-03-31T08:59:21.188Z,785.00
2023-03-31T09:00:16.924Z,760.00
2023-03-31T09:01:17.995Z,739.00
2023-03-31T09:02:17.738Z,721.00
2023-03-31T09:03:17.688Z,921.00
2023-03-31T09:04:17.043Z,890.00
2023-03-31T09:05:17.190Z,820.00
2023-03-31T09:06:17.575Z,854.00
2023-03-31T09:07:17.335Z,914.00
2023-03-31T09:08:16.889Z,806.00
2023-03-31T09:09:17.490Z,856.00
2023-03-31T09:10:17.756Z,627.00
2023-03-31T09:11:16.791Z,560.00
2023-03-31T09:12:16.746Z,533.00
2023-03-31T09:13:17.198Z,495.00
2023-03-31T09:14:17.283Z,491.00
2023-03-31T09:15:16.765Z,524.00
2023-03-31T09:16:17.039Z,503.00
2023-03-31T09:17:16.926Z,508.00
2023-03-31T09:18:17.044Z,521.00
2023-03-31T09:19:16.896Z,597.00
2023-03-31T09:20:16.869Z,519.00
2023-03-31T09:21:17.636Z,500.00
2023-03-31T09:22:16.806Z,516.00
2023-03-31T09:23:18.629Z,560.00
2023-03-31T09:24:16.962Z,609.00
2023-03-31T09:25:16.863Z,520.00
2023-03-31T09:26:19.401Z,511.00
2023-03-31T09:27:19.106Z,493.00
2023-03-31T09:28:22.973Z,426.00
2023-03-31T09:29:18.370Z,429.00
2023-03-31T09:30:16.729Z,453.00
2023-03-31T09:31:16.510Z,487.00
2023-03-31T09:32:16.767Z,498.00
2023-03-31T09:33:18.432Z,512.00
2023-03-31T09:34:16.582Z,466.00
2023-03-31T09:35:16.319Z,400.00
2023-03-31T09:36:16.364Z,490.00
2023-03-31T09:37:16.330Z,504.00
2023-03-31T09:38:16.577Z,553.00
2023-03-31T09:39:16.315Z,578.00
2023-03-31T09:40:16.341Z,560.00
2023-03-31T09:41:16.295Z,489.00
2023-03-31T09:42:16.246Z,494.00
2023-03-31T09:43:16.581Z,539.00
2023-03-31T09:44:16.214Z,597.00
2023-03-31T09:45:16.293Z,663.00
2023-03-31T09:46:16.295Z,675.00
2023-03-31T09:47:16.664Z,649.00
2023-03-31T09:48:16.455Z,584.00
2023-03-31T09:49:16.117Z,571.00
2023-03-31T09:50:16.061Z,712.00
2023-03-31T09:51:15.878Z,600.00
2023-03-31T09:52:15.853Z,596.00
2023-03-31T09:53:15.818Z,626.00
2023-03-31T09:54:16.096Z,636.00
2023-03-31T09:55:20.644Z,630.00
2023-03-31T09:56:15.758Z,632.00
2023-03-31T09:57:15.808Z,641.00
2023-03-31T09:58:15.767Z,665.00
2023-03-31T09:59:15.800Z,782.00
2023-03-31T10:00:16.166Z,890.00
2023-03-31T10:01:15.835Z,1130.00
2023-03-31T10:02:15.812Z,1010.00
2023-03-31T10:03:15.872Z,773.00
2023-03-31T10:04:15.870Z,690.00
2023-03-31T10:05:16.145Z,641.00
2023-03-31T10:06:15.822Z,577.00
2023-03-31T10:07:15.846Z,575.00
2023-03-31T10:08:15.809Z,542.00
2023-03-31T10:09:15.821Z,552.00
2023-03-31T10:10:15.852Z,609.00
2023-03-31T10:11:15.837Z,516.00
2023-03-31T10:12:15.883Z,513.00
2023-03-31T10:13:15.851Z,515.00
2023-03-31T10:14:15.891Z,602.00
2023-03-31T10:15:16.063Z,680.00
2023-03-31T10:16:15.943Z,609.00
2023-03-31T10:17:16.055Z,495.00
2023-03-31T10:18:15.931Z,524.00
2023-03-31T10:19:15.885Z,608.00
2023-03-31T10:20:16.057Z,644.00
2023-03-31T10:21:15.888Z,630.00
2023-03-31T10:22:15.850Z,591.00
2023-03-31T10:23:15.874Z,576.00
2023-03-31T10:24:15.891Z,530.00
2023-03-31T10:25:16.101Z,509.00
2023-03-31T10:26:15.862Z,498.00
2023-03-31T10:27:17.393Z,466.00
2023-03-31T10:28:15.912Z,423.00
2023-03-31T10:29:16.904Z,450.00
2023-03-31T10:30:15.913Z,463.00
2023-03-31T10:31:16.087Z,496.00
2023-03-31T10:32:15.915Z,501.00
2023-03-31T10:33:22.829Z,486.00
2023-03-31T10:34:15.918Z,487.00
2023-03-31T10:35:15.947Z,492.00
2023-03-31T10:36:15.933Z,494.00
2023-03-31T10:37:15.920Z,514.00
2023-03-31T10:38:15.861Z,585.00
2023-03-31T10:39:16.059Z,579.00
2023-03-31T10:40:15.795Z,594.00
2023-03-31T10:41:16.105Z,902.00
2023-03-31T10:42:15.857Z,895.00
2023-03-31T10:43:16.098Z,1060.00
2023-03-31T10:44:15.700Z,999.00
2023-03-31T10:45:26.262Z,1001.00
2023-03-31T10:46:15.719Z,1007.00
2023-03-31T10:47:15.725Z,1057.00
2023-03-31T10:48:15.733Z,1124.00
2023-03-31T10:49:15.729Z,1172.00
2023-03-31T10:50:16.092Z,1400.00
2023-03-31T10:51:16.068Z,1478.00
2023-03-31T10:52:16.081Z,1355.00
2023-03-31T10:53:15.689Z,1349.00
2023-03-31T10:54:16.247Z,1346.00
2023-03-31T10:55:15.598Z,1459.00
2023-03-31T10:56:15.565Z,1357.00
2023-03-31T10:57:15.552Z,1412.00
2023-03-31T10:58:15.598Z,1069.00
2023-03-31T10:59:15.510Z,983.00
2023-03-31T11:00:15.546Z,1022.00
2023-03-31T11:01:15.601Z,1033.00
2023-03-31T11:02:15.920Z,1237.00
2023-03-31T11:03:14.590Z,1237.00
2023-03-31T11:04:15.536Z,1167.00
2023-03-31T11:05:15.551Z,981.00
2023-03-31T11:06:16.063Z,941.00
2023-03-31T11:07:15.595Z,1028.00
2023-03-31T11:08:15.752Z,1238.00
2023-03-31T11:09:15.776Z,1278.00
2023-03-31T11:10:15.622Z,1246.00
2023-03-31T11:11:16.077Z,1343.00
2023-03-31T11:12:15.669Z,1677.00
2023-03-31T11:13:15.721Z,1794.00
2023-03-31T11:14:15.654Z,1694.00
2023-03-31T11:15:15.661Z,1355.00
2023-03-31T11:16:16.298Z,1329.00
2023-03-31T11:17:15.663Z,1307.00
2023-03-31T11:18:15.606Z,1141.00
2023-03-31T11:19:15.563Z,1193.00
2023-03-31T11:20:15.610Z,1334.00
2023-03-31T11:21:15.565Z,1483.00
2023-03-31T11:22:15.527Z,1286.00
2023-03-31T11:23:15.527Z,1131.00
2023-03-31T11:24:15.513Z,1147.00
2023-03-31T11:25:15.608Z,1239.00
2023-03-31T11:26:15.610Z,1127.00
2023-03-31T11:27:15.508Z,868.00
2023-03-31T11:28:15.524Z,1062.00
2023-03-31T11:29:15.619Z,1052.00
2023-03-31T11:30:16.075Z,1108.00
2023-03-31T11:31:15.602Z,1010.00
2023-03-31T11:32:15.658Z,964.00
2023-03-31T11:33:15.676Z,995.00
2023-03-31T11:34:16.069Z,1376.00
2023-03-31T11:35:15.729Z,1590.00
2023-03-31T11:36:15.795Z,1692.00
2023-03-31T11:37:15.720Z,1795.00
2023-03-31T11:38:16.173Z,1802.00
2023-03-31T11:39:15.681Z,1256.00
2023-03-31T11:40:15.693Z,1689.00
2023-03-31T11:41:16.096Z,1207.00
2023-03-31T11:42:16.348Z,1208.00
2023-03-31T11:43:15.821Z,1211.00
2023-03-31T11:44:15.890Z,1242.00
2023-03-31T11:45:15.881Z,1241.00
2023-03-31T11:46:16.211Z,1263.00
2023-03-31T11:47:15.983Z,1292.00
2023-03-31T11:48:16.075Z,1117.00
2023-03-31T11:49:16.144Z,831.00
2023-03-31T11:50:16.147Z,631.00
2023-03-31T11:51:16.592Z,607.00
2023-03-31T11:52:16.250Z,601.00
2023-03-31T11:53:16.254Z,605.00
2023-03-31T11:54:16.265Z,631.00
2023-03-31T11:55:16.301Z,602.00
2023-03-31T11:56:16.343Z,648.00
2023-03-31T11:57:16.441Z,807.00
2023-03-31T11:58:16.574Z,823.00
2023-03-31T11:59:16.491Z,715.00
2023-03-31T12:00:16.494Z,627.00
2023-03-31T12:01:17.078Z,606.00
2023-03-31T12:02:16.680Z,549.00
2023-03-31T12:03:17.309Z,527.00
2023-03-31T12:04:16.853Z,555.00
2023-03-31T12:05:16.938Z,520.00
2023-03-31T12:06:17.047Z,626.00
2023-03-31T12:07:17.123Z,805.00
2023-03-31T12:08:17.053Z,958.00
2023-03-31T12:09:17.110Z,430.00
2023-03-31T12:10:17.144Z,400.00
2023-03-31T12:11:17.193Z,400.00
2023-03-31T12:12:17.239Z,400.00
2023-03-31T12:13:17.253Z,400.00
2023-03-31T12:14:17.241Z,400.00
2023-03-31T12:15:17.287Z,557.00
2023-03-31T12:16:17.420Z,400.00
2023-03-31T12:17:17.585Z,455.00
2023-03-31T12:18:17.490Z,677.00